sensor_id;sensor_type;location;lat;lon;timestamp;pressure;altitude;pressure_sealevel;temperature;humidity
51259;BME280;37327;54.254;18.504;2023-03-13T00:00:00;100126.93;;;-1.76;83.25
51259;BME280;37327;54.254;18.504;2023-03-13T00:03:20;100109.66;;;-1.69;83.25
51259;BME280;37327;54.254;18.504;2023-03-13T00:06:39;100105.09;;;-1.67;83.36
51259;BME280;37327;54.254;18.504;2023-03-13T00:09:58;100082.34;;;-1.69;83.55
51259;BME280;37327;54.254;18.504;2023-03-13T00:13:15;100071.86;;;-1.71;83.79
51259;BME280;37327;54.254;18.504;2023-03-13T00:16:33;100071.52;;;-1.66;83.89
51259;BME280;37327;54.254;18.504;2023-03-13T00:19:52;100063.24;;;-1.62;83.91
51259;BME280;37327;54.254;18.504;2023-03-13T00:23:11;100062.16;;;-1.59;84.09
51259;BME280;37327;54.254;18.504;2023-03-13T00:26:29;100057.49;;;-1.55;84.19
51259;BME280;37327;54.254;18.504;2023-03-13T00:29:46;100062.79;;;-1.55;84.39
51259;BME280;37327;54.254;18.504;2023-03-13T00:33:06;100065.43;;;-1.55;84.46
51259;BME280;37327;54.254;18.504;2023-03-13T00:36:25;100068.92;;;-1.55;84.64
51259;BME280;37327;54.254;18.504;2023-03-13T00:39:42;100075.05;;;-1.54;84.89
51259;BME280;37327;54.254;18.504;2023-03-13T00:43:00;100075.05;;;-1.54;85.04
51259;BME280;37327;54.254;18.504;2023-03-13T00:46:20;100065.32;;;-1.54;85.03
51259;BME280;37327;54.254;18.504;2023-03-13T00:49:38;100066.16;;;-1.53;85.26
51259;BME280;37327;54.254;18.504;2023-03-13T00:52:56;100049.30;;;-1.52;85.41
51259;BME280;37327;54.254;18.504;2023-03-13T00:56:15;100044.88;;;-1.52;85.58
51259;BME280;37327;54.254;18.504;2023-03-13T00:59:33;100039.47;;;-1.50;85.74
51259;BME280;37327;54.254;18.504;2023-03-13T01:02:50;100018.28;;;-1.50;85.90
51259;BME280;37327;54.254;18.504;2023-03-13T01:06:10;100008.28;;;-1.47;86.07
51259;BME280;37327;54.254;18.504;2023-03-13T01:09:28;100005.52;;;-1.45;86.27
51259;BME280;37327;54.254;18.504;2023-03-13T01:12:45;99996.63;;;-1.44;86.40
51259;BME280;37327;54.254;18.504;2023-03-13T01:16:12;99980.74;;;-1.44;86.50
51259;BME280;37327;54.254;18.504;2023-03-13T01:19:30;99965.70;;;-1.44;86.73
51259;BME280;37327;54.254;18.504;2023-03-13T01:22:47;99969.30;;;-1.45;87.03
51259;BME280;37327;54.254;18.504;2023-03-13T01:26:06;99957.86;;;-1.45;87.41
51259;BME280;37327;54.254;18.504;2023-03-13T01:29:23;99959.55;;;-1.44;87.64
51259;BME280;37327;54.254;18.504;2023-03-13T01:32:40;99963.77;;;-1.42;87.76
51259;BME280;37327;54.254;18.504;2023-03-13T01:36:01;99946.94;;;-1.41;88.05
51259;BME280;37327;54.254;18.504;2023-03-13T01:39:19;99938.85;;;-1.39;88.19
51259;BME280;37327;54.254;18.504;2023-03-13T01:46:15;99942.22;;;-1.37;88.36
51259;BME280;37327;54.254;18.504;2023-03-13T01:49:34;99929.84;;;-1.36;88.55
51259;BME280;37327;54.254;18.504;2023-03-13T01:52:51;99933.32;;;-1.36;88.81
51259;BME280;37327;54.254;18.504;2023-03-13T01:56:14;99925.38;;;-1.36;88.80
51259;BME280;37327;54.254;18.504;2023-03-13T02:00:25;99924.66;;;-1.38;88.95
51259;BME280;37327;54.254;18.504;2023-03-13T02:03:07;99925.48;;;-1.37;89.10
51259;BME280;37327;54.254;18.504;2023-03-13T02:06:28;99919.25;;;-1.36;89.22
51259;BME280;37327;54.254;18.504;2023-03-13T02:09:51;99912.87;;;-1.34;89.33
51259;BME280;37327;54.254;18.504;2023-03-13T02:13:10;99911.77;;;-1.31;89.56
51259;BME280;37327;54.254;18.504;2023-03-13T02:16:33;99922.13;;;-1.28;89.80
51259;BME280;37327;54.254;18.504;2023-03-13T02:19:51;99924.52;;;-1.25;90.05
51259;BME280;37327;54.254;18.504;2023-03-13T02:26:38;99915.26;;;-1.20;90.32
51259;BME280;37327;54.254;18.504;2023-03-13T02:29:57;99916.84;;;-1.17;90.57
51259;BME280;37327;54.254;18.504;2023-03-13T02:33:15;99926.23;;;-1.13;90.83
51259;BME280;37327;54.254;18.504;2023-03-13T02:36:34;99929.34;;;-1.08;90.90
51259;BME280;37327;54.254;18.504;2023-03-13T02:39:51;99929.95;;;-1.04;91.16
51259;BME280;37327;54.254;18.504;2023-03-13T02:43:16;99921.50;;;-0.98;91.06
51259;BME280;37327;54.254;18.504;2023-03-13T02:46:44;99928.24;;;-0.94;91.21
51259;BME280;37327;54.254;18.504;2023-03-13T02:50:02;99931.49;;;-0.90;91.25
51259;BME280;37327;54.254;18.504;2023-03-13T02:53:20;99919.83;;;-0.88;91.38
51259;BME280;37327;54.254;18.504;2023-03-13T02:56:41;99926.80;;;-0.87;91.40
51259;BME280;37327;54.254;18.504;2023-03-13T02:59:59;99921.27;;;-0.84;91.46
51259;BME280;37327;54.254;18.504;2023-03-13T03:03:16;99921.00;;;-0.81;91.48
51259;BME280;37327;54.254;18.504;2023-03-13T03:06:34;99907.87;;;-0.82;91.65
51259;BME280;37327;54.254;18.504;2023-03-13T03:09:51;99894.49;;;-0.81;91.71
51259;BME280;37327;54.254;18.504;2023-03-13T03:13:08;99887.26;;;-0.78;91.73
51259;BME280;37327;54.254;18.504;2023-03-13T03:16:26;99888.97;;;-0.77;91.84
51259;BME280;37327;54.254;18.504;2023-03-13T03:19:43;99887.86;;;-0.75;92.10
51259;BME280;37327;54.254;18.504;2023-03-13T03:23:00;99877.98;;;-0.73;92.36
51259;BME280;37327;54.254;18.504;2023-03-13T03:26:17;99875.92;;;-0.69;92.44
51259;BME280;37327;54.254;18.504;2023-03-13T03:29:35;99867.02;;;-0.68;92.81
51259;BME280;37327;54.254;18.504;2023-03-13T03:32:52;99861.56;;;-0.67;93.24
51259;BME280;37327;54.254;18.504;2023-03-13T03:36:14;99854.48;;;-0.66;93.52
51259;BME280;37327;54.254;18.504;2023-03-13T03:39:32;99852.27;;;-0.61;93.75
51259;BME280;37327;54.254;18.504;2023-03-13T03:42:50;99842.53;;;-0.61;94.18
51259;BME280;37327;54.254;18.504;2023-03-13T03:46:08;99839.73;;;-0.59;94.46
51259;BME280;37327;54.254;18.504;2023-03-13T03:49:26;99833.59;;;-0.60;94.79
51259;BME280;37327;54.254;18.504;2023-03-13T03:52:43;99823.10;;;-0.61;95.13
51259;BME280;37327;54.254;18.504;2023-03-13T03:56:01;99824.09;;;-0.62;95.38
51259;BME280;37327;54.254;18.504;2023-03-13T03:59:18;99818.79;;;-0.62;95.55
51259;BME280;37327;54.254;18.504;2023-03-13T04:02:36;99816.84;;;-0.60;95.99
51259;BME280;37327;54.254;18.504;2023-03-13T04:05:53;99816.57;;;-0.57;96.43
51259;BME280;37327;54.254;18.504;2023-03-13T04:09:10;99807.39;;;-0.53;96.63
51259;BME280;37327;54.254;18.504;2023-03-13T04:12:28;99805.21;;;-0.48;97.11
51259;BME280;37327;54.254;18.504;2023-03-13T04:15:45;99803.03;;;-0.43;97.52
51259;BME280;37327;54.254;18.504;2023-03-13T04:19:04;99792.14;;;-0.40;97.76
51259;BME280;37327;54.254;18.504;2023-03-13T04:22:21;99788.26;;;-0.35;97.94
51259;BME280;37327;54.254;18.504;2023-03-13T04:25:38;99775.71;;;-0.33;98.29
51259;BME280;37327;54.254;18.504;2023-03-13T04:28:56;99764.85;;;-0.30;98.57
51259;BME280;37327;54.254;18.504;2023-03-13T04:32:13;99755.79;;;-0.28;98.85
51259;BME280;37327;54.254;18.504;2023-03-13T04:35:30;99760.84;;;-0.25;99.24
51259;BME280;37327;54.254;18.504;2023-03-13T04:38:47;99758.06;;;-0.23;99.60
51259;BME280;37327;54.254;18.504;2023-03-13T04:42:06;99755.13;;;-0.20;100.00
51259;BME280;37327;54.254;18.504;2023-03-13T04:45:23;99753.18;;;-0.18;100.00
51259;BME280;37327;54.254;18.504;2023-03-13T04:48:41;99745.94;;;-0.16;100.00
51259;BME280;37327;54.254;18.504;2023-03-13T04:51:58;99743.98;;;-0.14;100.00
51259;BME280;37327;54.254;18.504;2023-03-13T04:55:16;99734.82;;;-0.10;100.00
51259;BME280;37327;54.254;18.504;2023-03-13T04:58:33;99721.39;;;-0.08;100.00
51259;BME280;37327;54.254;18.504;2023-03-13T05:01:50;99710.53;;;-0.05;100.00
51259;BME280;37327;54.254;18.504;2023-03-13T05:05:08;99705.93;;;-0.03;100.00
51259;BME280;37327;54.254;18.504;2023-03-13T05:08:25;99695.89;;;0.01;100.00
51259;BME280;37327;54.254;18.504;2023-03-13T05:11:42;99698.26;;;0.04;100.00
51259;BME280;37327;54.254;18.504;2023-03-13T05:14:59;99692.83;;;0.05;100.00
51259;BME280;37327;54.254;18.504;2023-03-13T05:18:17;99682.07;;;0.07;100.00
51259;BME280;37327;54.254;18.504;2023-03-13T05:21:34;99665.03;;;0.09;100.00
51259;BME280;37327;54.254;18.504;2023-03-13T05:24:51;99662.25;;;0.11;100.00
51259;BME280;37327;54.254;18.504;2023-03-13T05:28:08;99655.83;;;0.13;100.00
51259;BME280;37327;54.254;18.504;2023-03-13T05:31:26;99668.96;;;0.15;100.00
51259;BME280;37327;54.254;18.504;2023-03-13T05:34:43;99677.63;;;0.17;100.00
51259;BME280;37327;54.254;18.504;2023-03-13T05:38:00;99669.41;;;0.20;100.00
51259;BME280;37327;54.254;18.504;2023-03-13T05:41:17;99665.64;;;0.23;100.00
51259;BME280;37327;54.254;18.504;2023-03-13T05:44:35;99675.01;;;0.27;100.00
51259;BME280;37327;54.254;18.504;2023-03-13T05:47:52;99670.40;;;0.29;100.00
51259;BME280;37327;54.254;18.504;2023-03-13T05:51:10;99673.63;;;0.32;100.00
51259;BME280;37327;54.254;18.504;2023-03-13T05:54:27;99671.67;;;0.34;100.00
51259;BME280;37327;54.254;18.504;2023-03-13T05:57:46;99666.23;;;0.36;100.00
51259;BME280;37327;54.254;18.504;2023-03-13T06:01:08;99662.33;;;0.40;100.00
51259;BME280;37327;54.254;18.504;2023-03-13T06:04:26;99662.06;;;0.43;100.00
51259;BME280;37327;54.254;18.504;2023-03-13T06:07:43;99648.36;;;0.48;100.00
51259;BME280;37327;54.254;18.504;2023-03-13T06:11:01;99641.80;;;0.52;100.00
51259;BME280;37327;54.254;18.504;2023-03-13T06:14:19;99637.88;;;0.56;100.00
51259;BME280;37327;54.254;18.504;2023-03-13T06:17:36;99624.33;;;0.59;100.00
51259;BME280;37327;54.254;18.504;2023-03-13T06:20:58;99622.23;;;0.63;100.00
51259;BME280;37327;54.254;18.504;2023-03-13T06:24:17;99629.78;;;0.67;100.00
51259;BME280;37327;54.254;18.504;2023-03-13T06:27:34;99618.71;;;0.72;100.00
51259;BME280;37327;54.254;18.504;2023-03-13T06:30:51;99615.37;;;0.79;100.00
51259;BME280;37327;54.254;18.504;2023-03-13T06:34:12;99617.31;;;0.87;100.00
51259;BME280;37327;54.254;18.504;2023-03-13T06:37:30;99605.43;;;0.91;100.00
51259;BME280;37327;54.254;18.504;2023-03-13T06:40:47;99597.18;;;0.94;100.00
51259;BME280;37327;54.254;18.504;2023-03-13T06:44:04;99592.55;;;0.96;100.00
51259;BME280;37327;54.254;18.504;2023-03-13T06:47:21;99589.60;;;0.99;100.00
51259;BME280;37327;54.254;18.504;2023-03-13T06:50:39;99580.77;;;1.09;100.00
51259;BME280;37327;54.254;18.504;2023-03-13T06:53:57;99575.73;;;1.15;100.00
51259;BME280;37327;54.254;18.504;2023-03-13T06:57:15;99564.38;;;1.23;100.00
51259;BME280;37327;54.254;18.504;2023-03-13T07:00:32;99566.60;;;1.28;100.00
51259;BME280;37327;54.254;18.504;2023-03-13T07:03:50;99564.87;;;1.36;100.00
51259;BME280;37327;54.254;18.504;2023-03-13T07:07:07;99568.49;;;1.45;100.00
51259;BME280;37327;54.254;18.504;2023-03-13T07:10:25;99555.44;;;1.52;100.00
51259;BME280;37327;54.254;18.504;2023-03-13T07:13:42;99553.05;;;1.58;100.00
51259;BME280;37327;54.254;18.504;2023-03-13T07:16:59;99554.97;;;1.66;100.00
51259;BME280;37327;54.254;18.504;2023-03-13T07:20:17;99550.56;;;1.75;100.00
51259;BME280;37327;54.254;18.504;2023-03-13T07:23:35;99544.50;;;1.83;100.00
51259;BME280;37327;54.254;18.504;2023-03-13T07:26:52;99541.10;;;1.90;100.00
51259;BME280;37327;54.254;18.504;2023-03-13T07:30:10;99540.48;;;1.96;100.00
51259;BME280;37327;54.254;18.504;2023-03-13T07:33:28;99524.59;;;2.05;100.00
51259;BME280;37327;54.254;18.504;2023-03-13T07:36:45;99517.00;;;2.10;100.00
51259;BME280;37327;54.254;18.504;2023-03-13T07:40:03;99510.77;;;2.19;100.00
51259;BME280;37327;54.254;18.504;2023-03-13T07:43:21;99501.85;;;2.28;100.00
51259;BME280;37327;54.254;18.504;2023-03-13T07:46:38;99491.44;;;2.35;100.00
51259;BME280;37327;54.254;18.504;2023-03-13T07:49:55;99496.00;;;2.43;100.00
51259;BME280;37327;54.254;18.504;2023-03-13T07:53:13;99494.37;;;2.50;100.00
51259;BME280;37327;54.254;18.504;2023-03-13T07:56:38;99495.82;;;2.62;100.00
51259;BME280;37327;54.254;18.504;2023-03-13T07:59:56;99491.22;;;2.72;100.00
51259;BME280;37327;54.254;18.504;2023-03-13T08:03:13;99490.44;;;2.80;100.00
51259;BME280;37327;54.254;18.504;2023-03-13T08:06:32;99492.62;;;2.85;100.00
51259;BME280;37327;54.254;18.504;2023-03-13T08:09:51;99486.31;;;2.86;100.00
51259;BME280;37327;54.254;18.504;2023-03-13T08:13:09;99485.30;;;2.87;100.00
51259;BME280;37327;54.254;18.504;2023-03-13T08:16:31;99476.48;;;2.86;100.00
51259;BME280;37327;54.254;18.504;2023-03-13T08:19:50;99462.62;;;2.83;100.00
51259;BME280;37327;54.254;18.504;2023-03-13T08:23:07;99463.78;;;2.80;100.00
51259;BME280;37327;54.254;18.504;2023-03-13T08:26:27;99458.45;;;2.80;100.00
51259;BME280;37327;54.254;18.504;2023-03-13T08:29:45;99457.62;;;2.80;100.00
51259;BME280;37327;54.254;18.504;2023-03-13T08:33:02;99451.77;;;2.76;100.00
51259;BME280;37327;54.254;18.504;2023-03-13T08:36:21;99448.95;;;2.78;100.00
51259;BME280;37327;54.254;18.504;2023-03-13T08:39:40;99437.27;;;2.79;100.00
51259;BME280;37327;54.254;18.504;2023-03-13T08:43:00;99443.44;;;2.79;100.00
51259;BME280;37327;54.254;18.504;2023-03-13T08:46:18;99440.63;;;2.81;100.00
51259;BME280;37327;54.254;18.504;2023-03-13T08:49:36;99423.65;;;2.82;100.00
51259;BME280;37327;54.254;18.504;2023-03-13T08:52:53;99417.15;;;2.84;100.00
51259;BME280;37327;54.254;18.504;2023-03-13T08:56:13;99413.32;;;2.87;100.00
51259;BME280;37327;54.254;18.504;2023-03-13T08:59:31;99411.17;;;2.90;100.00
51259;BME280;37327;54.254;18.504;2023-03-13T09:02:49;99408.05;;;2.95;100.00
51259;BME280;37327;54.254;18.504;2023-03-13T09:06:07;99402.08;;;3.01;100.00
51259;BME280;37327;54.254;18.504;2023-03-13T09:09:25;99394.10;;;3.09;100.00
51259;BME280;37327;54.254;18.504;2023-03-13T09:12:43;99394.63;;;3.13;100.00
51259;BME280;37327;54.254;18.504;2023-03-13T09:16:06;99382.64;;;3.17;100.00
51259;BME280;37327;54.254;18.504;2023-03-13T09:19:24;99374.81;;;3.24;100.00
51259;BME280;37327;54.254;18.504;2023-03-13T09:22:42;99374.15;;;3.30;100.00
51259;BME280;37327;54.254;18.504;2023-03-13T09:25:59;99368.20;;;3.36;100.00
51259;BME280;37327;54.254;18.504;2023-03-13T09:29:16;99360.20;;;3.44;100.00
51259;BME280;37327;54.254;18.504;2023-03-13T09:32:34;99353.86;;;3.53;100.00
51259;BME280;37327;54.254;18.504;2023-03-13T09:35:51;99347.53;;;3.63;100.00
51259;BME280;37327;54.254;18.504;2023-03-13T09:39:08;99344.55;;;3.74;100.00
51259;BME280;37327;54.254;18.504;2023-03-13T09:42:39;99326.52;;;3.84;100.00
51259;BME280;37327;54.254;18.504;2023-03-13T09:46:00;99328.86;;;3.95;100.00
51259;BME280;37327;54.254;18.504;2023-03-13T09:52:56;99324.84;;;4.08;100.00
51259;BME280;37327;54.254;18.504;2023-03-13T09:56:18;99324.34;;;4.12;100.00
51259;BME280;37327;54.254;18.504;2023-03-13T10:03:20;99299.13;;;4.15;100.00
51259;BME280;37327;54.254;18.504;2023-03-13T10:06:43;99289.76;;;4.19;100.00
51259;BME280;37327;54.254;18.504;2023-03-13T10:10:01;99289.44;;;4.22;100.00
51259;BME280;37327;54.254;18.504;2023-03-13T10:20:23;99271.03;;;4.27;100.00
51259;BME280;37327;54.254;18.504;2023-03-13T10:27:10;99260.88;;;4.23;100.00
51259;BME280;37327;54.254;18.504;2023-03-13T10:30:35;99256.05;;;4.18;100.00
51259;BME280;37327;54.254;18.504;2023-03-13T10:33:57;99251.87;;;4.15;100.00
51259;BME280;37327;54.254;18.504;2023-03-13T10:37:20;99237.85;;;4.13;100.00
51259;BME280;37327;54.254;18.504;2023-03-13T10:40:38;99236.01;;;4.14;100.00
51259;BME280;37327;54.254;18.504;2023-03-13T10:44:02;99236.01;;;4.14;100.00
51259;BME280;37327;54.254;18.504;2023-03-13T10:47:20;99221.00;;;4.13;100.00
51259;BME280;37327;54.254;18.504;2023-03-13T10:50:41;99214.64;;;4.14;100.00
51259;BME280;37327;54.254;18.504;2023-03-13T10:53:59;99190.27;;;4.17;100.00
51259;BME280;37327;54.254;18.504;2023-03-13T11:00:46;99182.58;;;4.22;100.00
51259;BME280;37327;54.254;18.504;2023-03-13T11:07:35;99172.23;;;4.19;100.00
51259;BME280;37327;54.254;18.504;2023-03-13T11:10:58;99161.37;;;4.21;100.00
51259;BME280;37327;54.254;18.504;2023-03-13T11:14:21;99155.01;;;4.22;100.00
51259;BME280;37327;54.254;18.504;2023-03-13T11:17:42;99150.52;;;4.22;100.00
51259;BME280;37327;54.254;18.504;2023-03-13T11:21:00;99136.15;;;4.23;100.00
51259;BME280;37327;54.254;18.504;2023-03-13T11:34:53;99102.38;;;4.30;100.00
51259;BME280;37327;54.254;18.504;2023-03-13T11:38:26;99091.04;;;4.28;100.00
51259;BME280;37327;54.254;18.504;2023-03-13T11:48:53;99076.20;;;4.26;100.00
51259;BME280;37327;54.254;18.504;2023-03-13T12:02:45;99034.28;;;4.26;100.00
51259;BME280;37327;54.254;18.504;2023-03-13T12:06:21;99028.77;;;4.28;100.00
51259;BME280;37327;54.254;18.504;2023-03-13T12:09:42;99026.91;;;4.28;100.00
51259;BME280;37327;54.254;18.504;2023-03-13T12:16:44;98995.98;;;4.34;100.00
51259;BME280;37327;54.254;18.504;2023-03-13T12:20:12;98985.13;;;4.35;100.00
51259;BME280;37327;54.254;18.504;2023-03-13T12:23:44;98989.45;;;4.37;100.00
51259;BME280;37327;54.254;18.504;2023-03-13T12:27:11;98974.07;;;4.39;100.00
51259;BME280;37327;54.254;18.504;2023-03-13T12:30:39;98966.35;;;4.44;100.00
51259;BME280;37327;54.254;18.504;2023-03-13T12:44:27;98934.85;;;4.54;100.00
51259;BME280;37327;54.254;18.504;2023-03-13T13:01:52;98907.30;;;4.68;100.00
51259;BME280;37327;54.254;18.504;2023-03-13T13:05:19;98904.92;;;4.73;100.00
51259;BME280;37327;54.254;18.504;2023-03-13T13:08:43;98883.44;;;4.82;100.00
51259;BME280;37327;54.254;18.504;2023-03-13T13:15:27;98883.09;;;4.85;100.00
51259;BME280;37327;54.254;18.504;2023-03-13T13:18:45;98872.74;;;4.82;100.00
51259;BME280;37327;54.254;18.504;2023-03-13T13:25:34;98863.72;;;4.83;100.00
51259;BME280;37327;54.254;18.504;2023-03-13T13:28:52;98863.63;;;4.91;100.00
51259;BME280;37327;54.254;18.504;2023-03-13T13:32:13;98856.88;;;4.95;100.00
51259;BME280;37327;54.254;18.504;2023-03-13T13:35:35;98843.79;;;5.00;100.00
51259;BME280;37327;54.254;18.504;2023-03-13T13:38:54;98849.20;;;5.07;100.00
51259;BME280;37327;54.254;18.504;2023-03-13T13:49:17;98830.72;;;5.27;100.00
51259;BME280;37327;54.254;18.504;2023-03-13T13:52:38;98836.34;;;5.32;100.00
51259;BME280;37327;54.254;18.504;2023-03-13T13:55:56;98824.88;;;5.38;100.00
51259;BME280;37327;54.254;18.504;2023-03-13T13:59:35;98810.37;;;5.47;100.00
51259;BME280;37327;54.254;18.504;2023-03-13T14:02:53;98798.30;;;5.58;100.00
51259;BME280;37327;54.254;18.504;2023-03-13T14:13:15;98790.59;;;5.70;100.00
51259;BME280;37327;54.254;18.504;2023-03-13T14:16:32;98789.44;;;5.79;100.00
51259;BME280;37327;54.254;18.504;2023-03-13T14:19:50;98768.27;;;5.84;100.00
51259;BME280;37327;54.254;18.504;2023-03-13T14:23:09;98771.82;;;5.91;100.00
51259;BME280;37327;54.254;18.504;2023-03-13T14:26:28;98766.94;;;5.95;100.00
51259;BME280;37327;54.254;18.504;2023-03-13T14:33:15;98761.39;;;5.97;100.00
51259;BME280;37327;54.254;18.504;2023-03-13T14:40:09;98757.93;;;6.03;100.00
51259;BME280;37327;54.254;18.504;2023-03-13T14:43:34;98740.88;;;6.10;100.00
51259;BME280;37327;54.254;18.504;2023-03-13T14:46:55;98743.63;;;6.17;100.00
51259;BME280;37327;54.254;18.504;2023-03-13T14:50:14;98742.82;;;6.23;100.00
51259;BME280;37327;54.254;18.504;2023-03-13T14:53:31;98746.13;;;6.25;100.00
51259;BME280;37327;54.254;18.504;2023-03-13T15:03:50;98725.81;;;6.44;100.00
51259;BME280;37327;54.254;18.504;2023-03-13T15:07:09;98747.88;;;6.46;100.00
51259;BME280;37327;54.254;18.504;2023-03-13T15:10:33;98736.34;;;6.46;100.00
51259;BME280;37327;54.254;18.504;2023-03-13T15:13:57;98736.76;;;6.43;100.00
51259;BME280;37327;54.254;18.504;2023-03-13T15:17:21;98736.31;;;6.39;100.00
51259;BME280;37327;54.254;18.504;2023-03-13T15:20:41;98737.34;;;6.38;100.00
51259;BME280;37327;54.254;18.504;2023-03-13T15:27:30;98723.73;;;6.40;100.00
51259;BME280;37327;54.254;18.504;2023-03-13T15:30:50;98729.51;;;6.37;100.00
51259;BME280;37327;54.254;18.504;2023-03-13T15:34:11;98745.37;;;6.38;100.00
51259;BME280;37327;54.254;18.504;2023-03-13T15:37:30;98738.75;;;6.34;100.00
51259;BME280;37327;54.254;18.504;2023-03-13T15:40:51;98726.17;;;6.35;100.00
51259;BME280;37327;54.254;18.504;2023-03-13T15:44:09;98724.34;;;6.35;100.00
51259;BME280;37327;54.254;18.504;2023-03-13T15:47:26;98735.88;;;6.36;100.00
51259;BME280;37327;54.254;18.504;2023-03-13T15:50:48;98742.06;;;6.36;100.00
51259;BME280;37327;54.254;18.504;2023-03-13T15:54:06;98739.19;;;6.38;100.00
51259;BME280;37327;54.254;18.504;2023-03-13T15:57:25;98746.22;;;6.39;100.00
51259;BME280;37327;54.254;18.504;2023-03-13T16:00:44;98737.13;;;6.40;100.00
51259;BME280;37327;54.254;18.504;2023-03-13T16:04:02;98737.57;;;6.43;100.00
51259;BME280;37327;54.254;18.504;2023-03-13T16:07:20;98737.38;;;6.45;100.00
51259;BME280;37327;54.254;18.504;2023-03-13T16:10:38;98749.36;;;6.49;100.00
51259;BME280;37327;54.254;18.504;2023-03-13T16:13:55;98760.30;;;6.54;100.00
51259;BME280;37327;54.254;18.504;2023-03-13T16:17:18;98763.23;;;6.59;100.00
51259;BME280;37327;54.254;18.504;2023-03-13T16:20:37;98763.66;;;6.63;100.00
51259;BME280;37327;54.254;18.504;2023-03-13T16:24:01;98769.45;;;6.66;100.00
51259;BME280;37327;54.254;18.504;2023-03-13T16:27:18;98756.86;;;6.67;100.00
51259;BME280;37327;54.254;18.504;2023-03-13T16:30:37;98749.65;;;6.67;100.00
51259;BME280;37327;54.254;18.504;2023-03-13T16:33:59;98759.73;;;6.65;100.00
51259;BME280;37327;54.254;18.504;2023-03-13T16:37:19;98758.73;;;6.66;100.00
51259;BME280;37327;54.254;18.504;2023-03-13T16:40:37;98762.43;;;6.65;100.00
51259;BME280;37327;54.254;18.504;2023-03-13T16:43:55;98758.11;;;6.64;100.00
51259;BME280;37327;54.254;18.504;2023-03-13T16:47:18;98764.48;;;6.63;100.00
51259;BME280;37327;54.254;18.504;2023-03-13T16:50:37;98767.40;;;6.68;100.00
51259;BME280;37327;54.254;18.504;2023-03-13T16:53:56;98780.40;;;6.71;100.00
51259;BME280;37327;54.254;18.504;2023-03-13T16:57:23;98777.71;;;6.71;100.00
51259;BME280;37327;54.254;18.504;2023-03-13T17:00:45;98793.41;;;6.75;100.00
51259;BME280;37327;54.254;18.504;2023-03-13T17:04:03;98788.88;;;6.75;100.00
51259;BME280;37327;54.254;18.504;2023-03-13T17:07:24;98777.33;;;6.75;100.00
51259;BME280;37327;54.254;18.504;2023-03-13T17:10:43;98771.58;;;6.78;100.00
51259;BME280;37327;54.254;18.504;2023-03-13T17:14:00;98775.27;;;6.77;100.00
51259;BME280;37327;54.254;18.504;2023-03-13T17:17:21;98770.10;;;6.75;100.00
51259;BME280;37327;54.254;18.504;2023-03-13T17:20:38;98758.94;;;6.71;100.00
51259;BME280;37327;54.254;18.504;2023-03-13T17:23:57;98774.41;;;6.69;100.00
51259;BME280;37327;54.254;18.504;2023-03-13T17:27:16;98776.08;;;6.70;100.00
51259;BME280;37327;54.254;18.504;2023-03-13T17:30:34;98770.30;;;6.73;100.00
51259;BME280;37327;54.254;18.504;2023-03-13T17:33:51;98765.98;;;6.79;100.00
51259;BME280;37327;54.254;18.504;2023-03-13T17:40:38;98762.73;;;6.84;100.00
51259;BME280;37327;54.254;18.504;2023-03-13T17:43:58;98767.67;;;6.87;100.00
51259;BME280;37327;54.254;18.504;2023-03-13T17:47:17;98760.88;;;6.91;100.00
51259;BME280;37327;54.254;18.504;2023-03-13T17:50:39;98760.49;;;6.94;100.00
51259;BME280;37327;54.254;18.504;2023-03-13T17:53:58;98763.18;;;7.01;100.00
51259;BME280;37327;54.254;18.504;2023-03-13T17:57:18;98764.66;;;7.03;100.00
51259;BME280;37327;54.254;18.504;2023-03-13T18:00:36;98760.12;;;7.10;100.00
51259;BME280;37327;54.254;18.504;2023-03-13T18:04:02;98761.37;;;7.15;100.00
51259;BME280;37327;54.254;18.504;2023-03-13T18:07:27;98774.20;;;7.19;100.00
51259;BME280;37327;54.254;18.504;2023-03-13T18:10:44;98764.51;;;7.25;100.00
51259;BME280;37327;54.254;18.504;2023-03-13T18:14:03;98774.82;;;7.28;100.00
51259;BME280;37327;54.254;18.504;2023-03-13T18:17:22;98759.95;;;7.32;100.00
51259;BME280;37327;54.254;18.504;2023-03-13T18:20:41;98750.70;;;7.35;100.00
51259;BME280;37327;54.254;18.504;2023-03-13T18:23:59;98737.48;;;7.33;100.00
51259;BME280;37327;54.254;18.504;2023-03-13T18:27:18;98740.98;;;7.34;100.00
51259;BME280;37327;54.254;18.504;2023-03-13T18:30:37;98734.36;;;7.36;100.00
51259;BME280;37327;54.254;18.504;2023-03-13T18:33:56;98742.22;;;7.38;100.00
51259;BME280;37327;54.254;18.504;2023-03-13T18:37:26;98735.84;;;7.39;100.00
51259;BME280;37327;54.254;18.504;2023-03-13T18:40:46;98728.39;;;7.41;100.00
51259;BME280;37327;54.254;18.504;2023-03-13T18:44:04;98729.23;;;7.41;100.00
51259;BME280;37327;54.254;18.504;2023-03-13T18:47:21;98729.84;;;7.43;100.00
51259;BME280;37327;54.254;18.504;2023-03-13T18:50:43;98724.27;;;7.45;100.00
51259;BME280;37327;54.254;18.504;2023-03-13T18:54:01;98723.03;;;7.47;100.00
51259;BME280;37327;54.254;18.504;2023-03-13T18:57:19;98723.87;;;7.48;100.00
51259;BME280;37327;54.254;18.504;2023-03-13T19:00:37;98718.27;;;7.49;100.00
51259;BME280;37327;54.254;18.504;2023-03-13T19:03:54;98707.33;;;7.51;100.00
51259;BME280;37327;54.254;18.504;2023-03-13T19:10:41;98692.04;;;7.51;100.00
51259;BME280;37327;54.254;18.504;2023-03-13T19:13:59;98701.96;;;7.51;100.00
51259;BME280;37327;54.254;18.504;2023-03-13T19:17:24;98703.84;;;7.50;100.00
51259;BME280;37327;54.254;18.504;2023-03-13T19:20:46;98708.16;;;7.51;100.00
51259;BME280;37327;54.254;18.504;2023-03-13T19:24:07;98702.77;;;7.51;100.00
51259;BME280;37327;54.254;18.504;2023-03-13T19:27:25;98710.64;;;7.53;100.00
51259;BME280;37327;54.254;18.504;2023-03-13T19:30:43;98710.23;;;7.56;100.00
51259;BME280;37327;54.254;18.504;2023-03-13T19:34:02;98709.39;;;7.56;100.00